sensor_id;sensor_type;location;lat;lon;timestamp;P1;durP1;ratioP1;P2;durP2;ratioP2
23720;SDS011;42950;52.134;5.578;2023-03-12T00:00:32;16.10;;;11.00;;
23720;SDS011;42950;52.134;5.578;2023-03-12T00:02:58;16.48;;;10.05;;
23720;SDS011;42950;52.134;5.578;2023-03-12T00:05:24;16.55;;;8.82;;
23720;SDS011;42950;52.134;5.578;2023-03-12T00:07:52;15.73;;;8.35;;
23720;SDS011;42950;52.134;5.578;2023-03-12T00:10:18;13.05;;;7.45;;
23720;SDS011;42950;52.134;5.578;2023-03-12T00:12:44;10.85;;;7.60;;
23720;SDS011;42950;52.134;5.578;2023-03-12T00:15:10;12.90;;;7.45;;
23720;SDS011;42950;52.134;5.578;2023-03-12T00:17:36;12.60;;;7.13;;
23720;SDS011;42950;52.134;5.578;2023-03-12T00:20:02;14.50;;;7.05;;
23720;SDS011;42950;52.134;5.578;2023-03-12T00:22:30;9.23;;;6.70;;
23720;SDS011;42950;52.134;5.578;2023-03-12T00:24:56;10.50;;;6.22;;
23720;SDS011;42950;52.134;5.578;2023-03-12T00:27:22;11.13;;;5.97;;
23720;SDS011;42950;52.134;5.578;2023-03-12T00:29:49;10.50;;;6.10;;
23720;SDS011;42950;52.134;5.578;2023-03-12T00:32:15;10.20;;;5.88;;
23720;SDS011;42950;52.134;5.578;2023-03-12T00:34:40;11.77;;;5.88;;
23720;SDS011;42950;52.134;5.578;2023-03-12T00:37:06;8.25;;;5.30;;
23720;SDS011;42950;52.134;5.578;2023-03-12T00:39:32;14.90;;;5.68;;
23720;SDS011;42950;52.134;5.578;2023-03-12T00:41:58;12.98;;;5.57;;
23720;SDS011;42950;52.134;5.578;2023-03-12T00:44:24;10.05;;;5.80;;
23720;SDS011;42950;52.134;5.578;2023-03-12T00:46:50;8.85;;;5.47;;
23720;SDS011;42950;52.134;5.578;2023-03-12T00:49:16;8.80;;;5.00;;
23720;SDS011;42950;52.134;5.578;2023-03-12T00:51:43;8.85;;;4.88;;
23720;SDS011;42950;52.134;5.578;2023-03-12T00:54:09;6.63;;;5.00;;
23720;SDS011;42950;52.134;5.578;2023-03-12T00:56:34;11.52;;;5.35;;
23720;SDS011;42950;52.134;5.578;2023-03-12T00:59:00;12.73;;;5.72;;
23720;SDS011;42950;52.134;5.578;2023-03-12T01:01:26;10.82;;;4.90;;
23720;SDS011;42950;52.134;5.578;2023-03-12T01:03:53;10.15;;;5.13;;
23720;SDS011;42950;52.134;5.578;2023-03-12T01:06:19;7.32;;;4.57;;
23720;SDS011;42950;52.134;5.578;2023-03-12T01:08:45;8.93;;;4.60;;
23720;SDS011;42950;52.134;5.578;2023-03-12T01:11:12;9.40;;;4.28;;
23720;SDS011;42950;52.134;5.578;2023-03-12T01:13:38;8.70;;;4.40;;
23720;SDS011;42950;52.134;5.578;2023-03-12T01:16:04;6.03;;;4.50;;
23720;SDS011;42950;52.134;5.578;2023-03-12T01:18:30;8.05;;;4.28;;
23720;SDS011;42950;52.134;5.578;2023-03-12T01:20:56;12.27;;;4.53;;
23720;SDS011;42950;52.134;5.578;2023-03-12T01:23:22;10.23;;;4.32;;
23720;SDS011;42950;52.134;5.578;2023-03-12T01:25:48;8.15;;;4.35;;
23720;SDS011;42950;52.134;5.578;2023-03-12T01:28:15;7.70;;;4.07;;
23720;SDS011;42950;52.134;5.578;2023-03-12T01:30:41;10.80;;;4.22;;
23720;SDS011;42950;52.134;5.578;2023-03-12T01:33:07;9.45;;;4.60;;
23720;SDS011;42950;52.134;5.578;2023-03-12T01:35:36;15.13;;;4.80;;
23720;SDS011;42950;52.134;5.578;2023-03-12T01:38:08;6.30;;;4.40;;
23720;SDS011;42950;52.134;5.578;2023-03-12T01:40:38;8.75;;;3.95;;
23720;SDS011;42950;52.134;5.578;2023-03-12T01:46:01;8.13;;;4.05;;
23720;SDS011;42950;52.134;5.578;2023-03-12T01:48:44;9.90;;;4.28;;
23720;SDS011;42950;52.134;5.578;2023-03-12T01:51:17;5.88;;;3.90;;
23720;SDS011;42950;52.134;5.578;2023-03-12T01:53:45;4.85;;;3.35;;
23720;SDS011;42950;52.134;5.578;2023-03-12T01:56:14;7.40;;;3.78;;
23720;SDS011;42950;52.134;5.578;2023-03-12T01:58:43;7.30;;;3.83;;
23720;SDS011;42950;52.134;5.578;2023-03-12T02:01:17;6.88;;;3.70;;
23720;SDS011;42950;52.134;5.578;2023-03-12T02:03:47;8.65;;;3.75;;
23720;SDS011;42950;52.134;5.578;2023-03-12T02:06:16;7.13;;;4.03;;
23720;SDS011;42950;52.134;5.578;2023-03-12T02:08:47;6.95;;;3.22;;
23720;SDS011;42950;52.134;5.578;2023-03-12T02:11:13;12.45;;;3.78;;
23720;SDS011;42950;52.134;5.578;2023-03-12T02:13:40;7.70;;;3.50;;
23720;SDS011;42950;52.134;5.578;2023-03-12T02:16:05;8.77;;;3.88;;
23720;SDS011;42950;52.134;5.578;2023-03-12T02:18:33;6.22;;;3.90;;
23720;SDS011;42950;52.134;5.578;2023-03-12T02:23:51;9.43;;;3.65;;
23720;SDS011;42950;52.134;5.578;2023-03-12T02:26:38;7.60;;;3.45;;
23720;SDS011;42950;52.134;5.578;2023-03-12T02:29:05;5.35;;;3.60;;
23720;SDS011;42950;52.134;5.578;2023-03-12T02:31:36;5.50;;;3.20;;
23720;SDS011;42950;52.134;5.578;2023-03-12T02:34:06;7.60;;;3.53;;
23720;SDS011;42950;52.134;5.578;2023-03-12T02:36:33;9.02;;;3.35;;
23720;SDS011;42950;52.134;5.578;2023-03-12T02:38:59;6.13;;;3.17;;
23720;SDS011;42950;52.134;5.578;2023-03-12T02:41:28;5.32;;;2.97;;
23720;SDS011;42950;52.134;5.578;2023-03-12T02:44:03;7.65;;;3.25;;
23720;SDS011;42950;52.134;5.578;2023-03-12T02:46:39;8.07;;;3.65;;
23720;SDS011;42950;52.134;5.578;2023-03-12T02:49:08;6.57;;;3.25;;
23720;SDS011;42950;52.134;5.578;2023-03-12T02:51:36;6.75;;;3.33;;
23720;SDS011;42950;52.134;5.578;2023-03-12T02:54:03;5.20;;;3.17;;
23720;SDS011;42950;52.134;5.578;2023-03-12T02:56:29;4.10;;;3.10;;
23720;SDS011;42950;52.134;5.578;2023-03-12T02:58:55;6.35;;;3.45;;
23720;SDS011;42950;52.134;5.578;2023-03-12T03:01:21;5.47;;;2.90;;
23720;SDS011;42950;52.134;5.578;2023-03-12T03:03:47;5.60;;;2.83;;
23720;SDS011;42950;52.134;5.578;2023-03-12T03:06:13;5.50;;;2.45;;
23720;SDS011;42950;52.134;5.578;2023-03-12T03:08:41;6.07;;;2.88;;
23720;SDS011;42950;52.134;5.578;2023-03-12T03:11:07;8.30;;;3.00;;
23720;SDS011;42950;52.134;5.578;2023-03-12T03:13:33;5.88;;;2.85;;
23720;SDS011;42950;52.134;5.578;2023-03-12T03:16:00;5.30;;;3.10;;
23720;SDS011;42950;52.134;5.578;2023-03-12T03:18:28;8.52;;;2.58;;
23720;SDS011;42950;52.134;5.578;2023-03-12T03:20:59;5.47;;;3.30;;
23720;SDS011;42950;52.134;5.578;2023-03-12T03:23:26;5.70;;;3.03;;
23720;SDS011;42950;52.134;5.578;2023-03-12T03:25:51;6.22;;;2.70;;
23720;SDS011;42950;52.134;5.578;2023-03-12T03:28:18;6.20;;;2.80;;
23720;SDS011;42950;52.134;5.578;2023-03-12T03:30:44;4.55;;;2.50;;
23720;SDS011;42950;52.134;5.578;2023-03-12T03:33:11;4.45;;;2.72;;
23720;SDS011;42950;52.134;5.578;2023-03-12T03:35:37;6.80;;;2.90;;
23720;SDS011;42950;52.134;5.578;2023-03-12T03:38:03;7.43;;;3.03;;
23720;SDS011;42950;52.134;5.578;2023-03-12T03:40:29;4.40;;;2.50;;
23720;SDS011;42950;52.134;5.578;2023-03-12T03:42:55;6.30;;;2.95;;
23720;SDS011;42950;52.134;5.578;2023-03-12T03:45:21;5.38;;;2.60;;
23720;SDS011;42950;52.134;5.578;2023-03-12T03:47:46;4.07;;;2.58;;
23720;SDS011;42950;52.134;5.578;2023-03-12T03:50:12;8.00;;;3.03;;
23720;SDS011;42950;52.134;5.578;2023-03-12T03:52:38;9.70;;;3.38;;
23720;SDS011;42950;52.134;5.578;2023-03-12T03:55:04;9.30;;;3.00;;
23720;SDS011;42950;52.134;5.578;2023-03-12T03:57:29;6.78;;;2.88;;
23720;SDS011;42950;52.134;5.578;2023-03-12T03:59:55;12.07;;;2.80;;
23720;SDS011;42950;52.134;5.578;2023-03-12T04:02:23;6.88;;;2.90;;
23720;SDS011;42950;52.134;5.578;2023-03-12T04:04:49;7.00;;;3.03;;
23720;SDS011;42950;52.134;5.578;2023-03-12T04:07:15;4.15;;;2.55;;
23720;SDS011;42950;52.134;5.578;2023-03-12T04:09:40;7.88;;;2.92;;
23720;SDS011;42950;52.134;5.578;2023-03-12T04:12:06;7.82;;;2.60;;
23720;SDS011;42950;52.134;5.578;2023-03-12T04:14:32;11.95;;;3.08;;
23720;SDS011;42950;52.134;5.578;2023-03-12T04:16:59;6.60;;;2.63;;
23720;SDS011;42950;52.134;5.578;2023-03-12T04:19:24;7.90;;;3.00;;
23720;SDS011;42950;52.134;5.578;2023-03-12T04:21:50;5.35;;;3.08;;
23720;SDS011;42950;52.134;5.578;2023-03-12T04:24:16;9.15;;;2.88;;
23720;SDS011;42950;52.134;5.578;2023-03-12T04:26:42;8.25;;;2.40;;
23720;SDS011;42950;52.134;5.578;2023-03-12T04:29:08;8.75;;;3.28;;
23720;SDS011;42950;52.134;5.578;2023-03-12T04:31:34;4.63;;;2.45;;
23720;SDS011;42950;52.134;5.578;2023-03-12T04:34:00;5.90;;;2.33;;
23720;SDS011;42950;52.134;5.578;2023-03-12T04:36:26;6.55;;;2.90;;
23720;SDS011;42950;52.134;5.578;2023-03-12T04:38:52;6.75;;;3.05;;
23720;SDS011;42950;52.134;5.578;2023-03-12T04:41:18;5.50;;;2.63;;
23720;SDS011;42950;52.134;5.578;2023-03-12T04:43:44;4.82;;;2.70;;
23720;SDS011;42950;52.134;5.578;2023-03-12T04:46:09;6.68;;;3.00;;
23720;SDS011;42950;52.134;5.578;2023-03-12T04:48:35;8.40;;;3.00;;
23720;SDS011;42950;52.134;5.578;2023-03-12T04:51:02;7.88;;;3.05;;
23720;SDS011;42950;52.134;5.578;2023-03-12T04:53:28;7.80;;;2.90;;
23720;SDS011;42950;52.134;5.578;2023-03-12T04:55:54;9.70;;;3.10;;
23720;SDS011;42950;52.134;5.578;2023-03-12T04:58:20;7.20;;;3.50;;
23720;SDS011;42950;52.134;5.578;2023-03-12T05:00:49;7.53;;;3.13;;
23720;SDS011;42950;52.134;5.578;2023-03-12T05:03:15;7.88;;;3.67;;
23720;SDS011;42950;52.134;5.578;2023-03-12T05:05:42;8.25;;;3.38;;
23720;SDS011;42950;52.134;5.578;2023-03-12T05:08:09;9.80;;;3.58;;
23720;SDS011;42950;52.134;5.578;2023-03-12T05:10:34;7.07;;;3.53;;
23720;SDS011;42950;52.134;5.578;2023-03-12T05:13:00;5.95;;;3.60;;
23720;SDS011;42950;52.134;5.578;2023-03-12T05:15:26;5.30;;;3.33;;
23720;SDS011;42950;52.134;5.578;2023-03-12T05:17:52;7.45;;;3.38;;
23720;SDS011;42950;52.134;5.578;2023-03-12T05:20:18;7.88;;;3.67;;
23720;SDS011;42950;52.134;5.578;2023-03-12T05:22:44;12.00;;;4.00;;
23720;SDS011;42950;52.134;5.578;2023-03-12T05:25:10;7.50;;;4.50;;
23720;SDS011;42950;52.134;5.578;2023-03-12T05:27:36;7.20;;;4.05;;
23720;SDS011;42950;52.134;5.578;2023-03-12T05:30:02;11.38;;;5.22;;
23720;SDS011;42950;52.134;5.578;2023-03-12T05:32:30;7.05;;;4.30;;
23720;SDS011;42950;52.134;5.578;2023-03-12T05:34:56;8.18;;;4.25;;
23720;SDS011;42950;52.134;5.578;2023-03-12T05:37:22;6.70;;;4.05;;
23720;SDS011;42950;52.134;5.578;2023-03-12T05:39:48;7.60;;;4.60;;
23720;SDS011;42950;52.134;5.578;2023-03-12T05:42:14;11.80;;;4.13;;
23720;SDS011;42950;52.134;5.578;2023-03-12T05:44:40;8.75;;;4.15;;
23720;SDS011;42950;52.134;5.578;2023-03-12T05:47:06;5.97;;;4.45;;
23720;SDS011;42950;52.134;5.578;2023-03-12T05:49:32;9.80;;;4.30;;
23720;SDS011;42950;52.134;5.578;2023-03-12T05:51:59;6.30;;;4.30;;
23720;SDS011;42950;52.134;5.578;2023-03-12T05:54:26;11.27;;;4.05;;
23720;SDS011;42950;52.134;5.578;2023-03-12T05:56:52;8.38;;;3.72;;
23720;SDS011;42950;52.134;5.578;2023-03-12T05:59:17;6.65;;;4.30;;
23720;SDS011;42950;52.134;5.578;2023-03-12T06:01:43;11.23;;;4.20;;
23720;SDS011;42950;52.134;5.578;2023-03-12T06:04:09;9.18;;;4.28;;
23720;SDS011;42950;52.134;5.578;2023-03-12T06:06:35;9.25;;;4.07;;
23720;SDS011;42950;52.134;5.578;2023-03-12T06:09:01;8.90;;;4.30;;
23720;SDS011;42950;52.134;5.578;2023-03-12T06:11:28;11.15;;;4.63;;
23720;SDS011;42950;52.134;5.578;2023-03-12T06:13:55;10.23;;;4.35;;
23720;SDS011;42950;52.134;5.578;2023-03-12T06:16:22;10.23;;;3.80;;
23720;SDS011;42950;52.134;5.578;2023-03-12T06:18:54;6.93;;;3.85;;
23720;SDS011;42950;52.134;5.578;2023-03-12T06:21:22;6.53;;;3.83;;
23720;SDS011;42950;52.134;5.578;2023-03-12T06:23:49;7.45;;;4.05;;
23720;SDS011;42950;52.134;5.578;2023-03-12T06:26:16;10.57;;;3.88;;
23720;SDS011;42950;52.134;5.578;2023-03-12T06:28:44;8.10;;;4.20;;
23720;SDS011;42950;52.134;5.578;2023-03-12T06:31:11;6.72;;;3.88;;
23720;SDS011;42950;52.134;5.578;2023-03-12T06:33:38;8.43;;;4.10;;
23720;SDS011;42950;52.134;5.578;2023-03-12T06:36:05;6.20;;;3.78;;
23720;SDS011;42950;52.134;5.578;2023-03-12T06:38:32;8.50;;;4.05;;
23720;SDS011;42950;52.134;5.578;2023-03-12T06:40:59;6.90;;;4.10;;
23720;SDS011;42950;52.134;5.578;2023-03-12T06:43:27;8.45;;;4.63;;
23720;SDS011;42950;52.134;5.578;2023-03-12T06:45:55;8.52;;;4.53;;
23720;SDS011;42950;52.134;5.578;2023-03-12T06:48:21;5.47;;;4.25;;
23720;SDS011;42950;52.134;5.578;2023-03-12T06:50:49;14.60;;;5.53;;
23720;SDS011;42950;52.134;5.578;2023-03-12T06:53:15;11.10;;;7.10;;
23720;SDS011;42950;52.134;5.578;2023-03-12T06:55:42;11.45;;;6.30;;
23720;SDS011;42950;52.134;5.578;2023-03-12T06:58:08;10.23;;;4.88;;
23720;SDS011;42950;52.134;5.578;2023-03-12T07:00:34;12.35;;;5.47;;
23720;SDS011;42950;52.134;5.578;2023-03-12T07:03:00;10.75;;;4.82;;
23720;SDS011;42950;52.134;5.578;2023-03-12T07:05:26;9.60;;;5.05;;
23720;SDS011;42950;52.134;5.578;2023-03-12T07:07:51;9.57;;;5.38;;
23720;SDS011;42950;52.134;5.578;2023-03-12T07:10:17;10.05;;;6.00;;
23720;SDS011;42950;52.134;5.578;2023-03-12T07:12:43;14.73;;;6.32;;
23720;SDS011;42950;52.134;5.578;2023-03-12T07:15:09;12.70;;;6.78;;
23720;SDS011;42950;52.134;5.578;2023-03-12T07:17:34;10.80;;;6.32;;
23720;SDS011;42950;52.134;5.578;2023-03-12T07:20:00;12.60;;;6.57;;
23720;SDS011;42950;52.134;5.578;2023-03-12T07:22:26;8.68;;;6.63;;
23720;SDS011;42950;52.134;5.578;2023-03-12T07:24:52;13.45;;;7.68;;
23720;SDS011;42950;52.134;5.578;2023-03-12T07:27:18;12.45;;;7.22;;
23720;SDS011;42950;52.134;5.578;2023-03-12T07:29:43;13.07;;;6.63;;
23720;SDS011;42950;52.134;5.578;2023-03-12T07:32:09;14.00;;;8.52;;
23720;SDS011;42950;52.134;5.578;2023-03-12T07:34:35;11.35;;;7.00;;
23720;SDS011;42950;52.134;5.578;2023-03-12T07:37:00;15.38;;;7.30;;
23720;SDS011;42950;52.134;5.578;2023-03-12T07:39:26;13.38;;;7.15;;
23720;SDS011;42950;52.134;5.578;2023-03-12T07:41:51;15.63;;;9.27;;
23720;SDS011;42950;52.134;5.578;2023-03-12T07:44:17;13.32;;;7.82;;
23720;SDS011;42950;52.134;5.578;2023-03-12T07:46:42;14.70;;;7.95;;
23720;SDS011;42950;52.134;5.578;2023-03-12T07:49:08;14.05;;;7.57;;
23720;SDS011;42950;52.134;5.578;2023-03-12T07:51:34;12.90;;;8.90;;
23720;SDS011;42950;52.134;5.578;2023-03-12T07:53:59;17.77;;;8.90;;
23720;SDS011;42950;52.134;5.578;2023-03-12T07:56:25;13.50;;;8.38;;
23720;SDS011;42950;52.134;5.578;2023-03-12T07:58:51;11.90;;;8.02;;
23720;SDS011;42950;52.134;5.578;2023-03-12T08:01:16;12.07;;;8.98;;
23720;SDS011;42950;52.134;5.578;2023-03-12T08:03:42;16.17;;;8.40;;
23720;SDS011;42950;52.134;5.578;2023-03-12T08:06:08;15.80;;;8.73;;
23720;SDS011;42950;52.134;5.578;2023-03-12T08:08:33;13.23;;;9.00;;
23720;SDS011;42950;52.134;5.578;2023-03-12T08:11:00;14.75;;;8.82;;
23720;SDS011;42950;52.134;5.578;2023-03-12T08:13:27;15.20;;;8.75;;
23720;SDS011;42950;52.134;5.578;2023-03-12T08:15:53;16.13;;;8.63;;
23720;SDS011;42950;52.134;5.578;2023-03-12T08:18:19;14.60;;;9.10;;
23720;SDS011;42950;52.134;5.578;2023-03-12T08:20:48;14.07;;;8.75;;
23720;SDS011;42950;52.134;5.578;2023-03-12T08:23:17;16.00;;;8.73;;
23720;SDS011;42950;52.134;5.578;2023-03-12T08:25:47;14.25;;;9.40;;
23720;SDS011;42950;52.134;5.578;2023-03-12T08:28:14;13.82;;;9.98;;
23720;SDS011;42950;52.134;5.578;2023-03-12T08:31:13;13.23;;;10.15;;
23720;SDS011;42950;52.134;5.578;2023-03-12T08:33:33;14.35;;;9.70;;
23720;SDS011;42950;52.134;5.578;2023-03-12T08:35:59;14.93;;;9.38;;
23720;SDS011;42950;52.134;5.578;2023-03-12T08:38:25;15.43;;;9.98;;
23720;SDS011;42950;52.134;5.578;2023-03-12T08:40:57;14.15;;;10.05;;
23720;SDS011;42950;52.134;5.578;2023-03-12T08:43:24;12.45;;;9.50;;
23720;SDS011;42950;52.134;5.578;2023-03-12T08:45:57;16.08;;;10.27;;
23720;SDS011;42950;52.134;5.578;2023-03-12T08:48:24;17.65;;;11.10;;
23720;SDS011;42950;52.134;5.578;2023-03-12T08:50:50;18.60;;;11.70;;
23720;SDS011;42950;52.134;5.578;2023-03-12T08:53:18;16.30;;;11.25;;
23720;SDS011;42950;52.134;5.578;2023-03-12T08:55:44;15.45;;;12.80;;
23720;SDS011;42950;52.134;5.578;2023-03-12T08:58:10;17.42;;;13.02;;
23720;SDS011;42950;52.134;5.578;2023-03-12T09:00:36;17.83;;;12.35;;
23720;SDS011;42950;52.134;5.578;2023-03-12T09:03:01;15.68;;;12.40;;
23720;SDS011;42950;52.134;5.578;2023-03-12T09:05:27;16.15;;;12.52;;
23720;SDS011;42950;52.134;5.578;2023-03-12T09:07:54;17.85;;;12.77;;
23720;SDS011;42950;52.134;5.578;2023-03-12T09:10:20;20.13;;;13.57;;
23720;SDS011;42950;52.134;5.578;2023-03-12T09:12:45;21.30;;;13.70;;
23720;SDS011;42950;52.134;5.578;2023-03-12T09:15:11;18.27;;;13.13;;
23720;SDS011;42950;52.134;5.578;2023-03-12T09:17:37;18.90;;;14.27;;
23720;SDS011;42950;52.134;5.578;2023-03-12T09:20:03;19.30;;;13.82;;
23720;SDS011;42950;52.134;5.578;2023-03-12T09:22:32;22.25;;;14.30;;
23720;SDS011;42950;52.134;5.578;2023-03-12T09:25:00;18.98;;;13.15;;
23720;SDS011;42950;52.134;5.578;2023-03-12T09:27:38;20.40;;;13.68;;
23720;SDS011;42950;52.134;5.578;2023-03-12T09:30:05;22.45;;;14.50;;
23720;SDS011;42950;52.134;5.578;2023-03-12T09:32:32;21.10;;;15.85;;
23720;SDS011;42950;52.134;5.578;2023-03-12T09:34:58;20.38;;;15.85;;
23720;SDS011;42950;52.134;5.578;2023-03-12T09:37:23;23.90;;;15.27;;
23720;SDS011;42950;52.134;5.578;2023-03-12T09:39:49;23.17;;;15.63;;
23720;SDS011;42950;52.134;5.578;2023-03-12T09:42:20;24.80;;;16.83;;
23720;SDS011;42950;52.134;5.578;2023-03-12T09:44:54;23.48;;;16.80;;
23720;SDS011;42950;52.134;5.578;2023-03-12T09:47:30;25.92;;;17.95;;
23720;SDS011;42950;52.134;5.578;2023-03-12T09:50:23;28.10;;;17.65;;
23720;SDS011;42950;52.134;5.578;2023-03-12T09:53:27;29.98;;;18.40;;
23720;SDS011;42950;52.134;5.578;2023-03-12T09:55:58;35.95;;;21.02;;
23720;SDS011;42950;52.134;5.578;2023-03-12T09:58:34;31.60;;;20.60;;
23720;SDS011;42950;52.134;5.578;2023-03-12T10:26:09;39.40;;;26.08;;
23720;SDS011;42950;52.134;5.578;2023-03-12T10:28:41;39.60;;;25.27;;
23720;SDS011;42950;52.134;5.578;2023-03-12T10:31:14;43.15;;;25.77;;
23720;SDS011;42950;52.134;5.578;2023-03-12T10:33:45;41.28;;;26.67;;
23720;SDS011;42950;52.134;5.578;2023-03-12T10:36:16;41.55;;;27.48;;
23720;SDS011;42950;52.134;5.578;2023-03-12T10:38:44;38.80;;;26.10;;
23720;SDS011;42950;52.134;5.578;2023-03-12T10:41:31;37.33;;;25.98;;
23720;SDS011;42950;52.134;5.578;2023-03-12T10:43:58;37.45;;;26.65;;
23720;SDS011;42950;52.134;5.578;2023-03-12T10:49:22;41.03;;;26.30;;
23720;SDS011;42950;52.134;5.578;2023-03-12T10:51:54;41.72;;;26.38;;
23720;SDS011;42950;52.134;5.578;2023-03-12T10:54:21;38.33;;;26.85;;
23720;SDS011;42950;52.134;5.578;2023-03-12T10:56:52;36.88;;;26.13;;
23720;SDS011;42950;52.134;5.578;2023-03-12T10:59:21;40.70;;;27.00;;
23720;SDS011;42950;52.134;5.578;2023-03-12T11:01:50;37.80;;;26.58;;
23720;SDS011;42950;52.134;5.578;2023-03-12T11:04:18;38.33;;;27.48;;
23720;SDS011;42950;52.134;5.578;2023-03-12T11:12:32;35.83;;;26.35;;
23720;SDS011;42950;52.134;5.578;2023-03-12T11:15:16;40.17;;;25.33;;
23720;SDS011;42950;52.134;5.578;2023-03-12T11:17:48;34.05;;;25.25;;
23720;SDS011;42950;52.134;5.578;2023-03-12T11:20:32;38.35;;;26.08;;
23720;SDS011;42950;52.134;5.578;2023-03-12T11:22:57;37.17;;;24.90;;
23720;SDS011;42950;52.134;5.578;2023-03-12T11:25:41;35.78;;;23.88;;
23720;SDS011;42950;52.134;5.578;2023-03-12T11:28:10;39.50;;;24.48;;
23720;SDS011;42950;52.134;5.578;2023-03-12T11:30:41;40.08;;;23.88;;
23720;SDS011;42950;52.134;5.578;2023-03-12T11:33:09;37.92;;;23.38;;
23720;SDS011;42950;52.134;5.578;2023-03-12T11:38:49;41.00;;;22.63;;
23720;SDS011;42950;52.134;5.578;2023-03-12T11:44:20;36.17;;;18.52;;
23720;SDS011;42950;52.134;5.578;2023-03-12T11:55:20;36.22;;;17.58;;
23720;SDS011;42950;52.134;5.578;2023-03-12T12:01:08;33.50;;;14.07;;
23720;SDS011;42950;52.134;5.578;2023-03-12T12:19:52;31.70;;;11.82;;
23720;SDS011;42950;52.134;5.578;2023-03-12T12:31:03;27.65;;;10.80;;
23720;SDS011;42950;52.134;5.578;2023-03-12T12:36:43;32.33;;;10.80;;
23720;SDS011;42950;52.134;5.578;2023-03-12T12:39:49;30.25;;;9.93;;
23720;SDS011;42950;52.134;5.578;2023-03-12T12:42:15;28.73;;;9.80;;
23720;SDS011;42950;52.134;5.578;2023-03-12T12:44:47;36.88;;;9.43;;
23720;SDS011;42950;52.134;5.578;2023-03-12T12:47:18;31.20;;;9.88;;
23720;SDS011;42950;52.134;5.578;2023-03-12T12:49:57;35.20;;;10.57;;
23720;SDS011;42950;52.134;5.578;2023-03-12T12:52:23;39.03;;;10.25;;
23720;SDS011;42950;52.134;5.578;2023-03-12T12:59:58;42.80;;;10.57;;
23720;SDS011;42950;52.134;5.578;2023-03-12T13:02:37;44.75;;;10.38;;
23720;SDS011;42950;52.134;5.578;2023-03-12T13:05:19;40.25;;;9.68;;
23720;SDS011;42950;52.134;5.578;2023-03-12T13:07:52;37.58;;;10.07;;
23720;SDS011;42950;52.134;5.578;2023-03-12T13:13:09;39.90;;;9.43;;
23720;SDS011;42950;52.134;5.578;2023-03-12T13:15:42;44.50;;;9.30;;
23720;SDS011;42950;52.134;5.578;2023-03-12T13:18:17;38.40;;;10.18;;
23720;SDS011;42950;52.134;5.578;2023-03-12T13:23:27;44.03;;;9.90;;
23720;SDS011;42950;52.134;5.578;2023-03-12T13:26:35;38.50;;;9.75;;
23720;SDS011;42950;52.134;5.578;2023-03-12T13:29:18;41.22;;;9.65;;
23720;SDS011;42950;52.134;5.578;2023-03-12T13:31:44;51.83;;;9.63;;
23720;SDS011;42950;52.134;5.578;2023-03-12T13:36:46;49.22;;;10.32;;
23720;SDS011;42950;52.134;5.578;2023-03-12T13:41:41;44.08;;;9.73;;
23720;SDS011;42950;52.134;5.578;2023-03-12T13:46:58;39.25;;;9.73;;
23720;SDS011;42950;52.134;5.578;2023-03-12T13:49:59;44.38;;;10.35;;
23720;SDS011;42950;52.134;5.578;2023-03-12T13:55:40;45.30;;;8.48;;
23720;SDS011;42950;52.134;5.578;2023-03-12T13:58:14;35.53;;;7.93;;
23720;SDS011;42950;52.134;5.578;2023-03-12T14:03:38;56.03;;;9.48;;
23720;SDS011;42950;52.134;5.578;2023-03-12T14:06:09;45.53;;;8.70;;
23720;SDS011;42950;52.134;5.578;2023-03-12T14:08:40;35.65;;;8.73;;
23720;SDS011;42950;52.134;5.578;2023-03-12T14:16:53;41.72;;;7.97;;
23720;SDS011;42950;52.134;5.578;2023-03-12T14:19:28;37.35;;;7.15;;
23720;SDS011;42950;52.134;5.578;2023-03-12T14:21:56;37.85;;;7.32;;
23720;SDS011;42950;52.134;5.578;2023-03-12T14:24:33;36.55;;;6.32;;
23720;SDS011;42950;52.134;5.578;2023-03-12T14:27:05;28.38;;;6.03;;
23720;SDS011;42950;52.134;5.578;2023-03-12T14:29:42;38.47;;;7.15;;
23720;SDS011;42950;52.134;5.578;2023-03-12T14:32:17;32.20;;;5.93;;
23720;SDS011;42950;52.134;5.578;2023-03-12T14:34:50;32.35;;;6.97;;
23720;SDS011;42950;52.134;5.578;2023-03-12T14:37:21;35.28;;;6.25;;
23720;SDS011;42950;52.134;5.578;2023-03-12T14:40:02;36.38;;;6.60;;
23720;SDS011;42950;52.134;5.578;2023-03-12T14:42:38;34.67;;;6.00;;
23720;SDS011;42950;52.134;5.578;2023-03-12T14:45:11;35.30;;;5.80;;
23720;SDS011;42950;52.134;5.578;2023-03-12T14:47:41;36.35;;;6.20;;
23720;SDS011;42950;52.134;5.578;2023-03-12T14:50:29;25.67;;;5.15;;
23720;SDS011;42950;52.134;5.578;2023-03-12T14:53:16;33.90;;;5.78;;
23720;SDS011;42950;52.134;5.578;2023-03-12T14:55:58;25.42;;;4.90;;
23720;SDS011;42950;52.134;5.578;2023-03-12T14:58:24;32.40;;;5.90;;
23720;SDS011;42950;52.134;5.578;2023-03-12T15:00:54;31.08;;;5.03;;
23720;SDS011;42950;52.134;5.578;2023-03-12T15:03:22;31.00;;;5.72;;
23720;SDS011;42950;52.134;5.578;2023-03-12T15:05:48;28.10;;;5.28;;
23720;SDS011;42950;52.134;5.578;2023-03-12T15:08:15;30.55;;;5.25;;
23720;SDS011;42950;52.134;5.578;2023-03-12T15:10:55;27.38;;;5.60;;
23720;SDS011;42950;52.134;5.578;2023-03-12T15:13:22;29.90;;;6.00;;
23720;SDS011;42950;52.134;5.578;2023-03-12T15:15:51;34.70;;;6.22;;
23720;SDS011;42950;52.134;5.578;2023-03-12T15:18:23;36.22;;;5.78;;
23720;SDS011;42950;52.134;5.578;2023-03-12T15:20:51;27.63;;;5.50;;
23720;SDS011;42950;52.134;5.578;2023-03-12T15:23:18;32.55;;;5.88;;
23720;SDS011;42950;52.134;5.578;2023-03-12T15:25:46;35.85;;;6.07;;
23720;SDS011;42950;52.134;5.578;2023-03-12T15:30:40;29.95;;;5.25;;
23720;SDS011;42950;52.134;5.578;2023-03-12T15:35:40;30.63;;;5.30;;
23720;SDS011;42950;52.134;5.578;2023-03-12T15:38:14;29.48;;;5.82;;
23720;SDS011;42950;52.134;5.578;2023-03-12T15:40:40;31.75;;;5.68;;
23720;SDS011;42950;52.134;5.578;2023-03-12T15:43:14;26.10;;;5.45;;
23720;SDS011;42950;52.134;5.578;2023-03-12T15:45:42;37.15;;;6.15;;
23720;SDS011;42950;52.134;5.578;2023-03-12T15:50:52;30.58;;;5.90;;
23720;SDS011;42950;52.134;5.578;2023-03-12T15:55:53;34.47;;;6.05;;
23720;SDS011;42950;52.134;5.578;2023-03-12T15:58:38;27.98;;;5.05;;
23720;SDS011;42950;52.134;5.578;2023-03-12T16:01:05;32.03;;;5.28;;
23720;SDS011;42950;52.134;5.578;2023-03-12T16:03:43;31.88;;;5.53;;
23720;SDS011;42950;52.134;5.578;2023-03-12T16:06:13;36.97;;;6.03;;
23720;SDS011;42950;52.134;5.578;2023-03-12T16:08:50;29.15;;;6.00;;
23720;SDS011;42950;52.134;5.578;2023-03-12T16:11:21;26.00;;;4.80;;
23720;SDS011;42950;52.134;5.578;2023-03-12T16:13:52;33.03;;;6.13;;
23720;SDS011;42950;52.134;5.578;2023-03-12T16:16:41;33.55;;;5.80;;
23720;SDS011;42950;52.134;5.578;2023-03-12T16:19:13;28.35;;;5.25;;
23720;SDS011;42950;52.134;5.578;2023-03-12T16:21:40;29.25;;;6.20;;
23720;SDS011;42950;52.134;5.578;2023-03-12T16:24:06;29.58;;;5.60;;
23720;SDS011;42950;52.134;5.578;2023-03-12T16:26:33;32.10;;;5.68;;
23720;SDS011;42950;52.134;5.578;2023-03-12T16:29:00;29.40;;;5.68;;
23720;SDS011;42950;52.134;5.578;2023-03-12T16:31:27;38.17;;;6.38;;
23720;SDS011;42950;52.134;5.578;2023-03-12T16:33:52;27.05;;;5.65;;
23720;SDS011;42950;52.134;5.578;2023-03-12T16:36:18;31.63;;;5.95;;
23720;SDS011;42950;52.134;5.578;2023-03-12T16:38:44;31.77;;;6.18;;
23720;SDS011;42950;52.134;5.578;2023-03-12T16:41:11;32.38;;;6.03;;
23720;SDS011;42950;52.134;5.578;2023-03-12T16:43:38;33.38;;;6.38;;
23720;SDS011;42950;52.134;5.578;2023-03-12T16:46:06;40.60;;;5.97;;
23720;SDS011;42950;52.134;5.578;2023-03-12T16:48:33;38.70;;;5.72;;
23720;SDS011;42950;52.134;5.578;2023-03-12T16:50:59;38.83;;;7.00;;